createdAt,value
2019-01-05T00:01:07.624Z,96489.23
2019-01-05T00:03:57.699Z,96473.30
2019-01-05T00:06:55.966Z,96460.57
2019-01-05T00:09:52.621Z,96460.84
2019-01-05T00:12:43.440Z,96454.54
2019-01-05T00:15:41.140Z,96460.65
2019-01-05T00:18:44.659Z,96455.08
2019-01-05T00:21:51.566Z,96454.41
2019-01-05T00:27:23.814Z,96457.27
2019-01-05T00:30:34.282Z,96462.08
2019-01-05T00:33:25.074Z,96463.55
2019-01-05T00:36:42.557Z,96466.34
2019-01-05T00:39:59.195Z,96469.58
2019-01-05T00:42:58.675Z,96475.65
2019-01-05T00:46:05.815Z,96485.38
2019-01-05T00:49:11.634Z,96487.63
2019-01-05T00:52:05.595Z,96490.73
2019-01-05T00:54:59.449Z,96491.34
2019-01-05T00:57:53.674Z,96487.14
2019-01-05T01:00:39.542Z,96482.73
2019-01-05T01:03:40.314Z,96487.80
2019-01-05T01:06:30.535Z,96483.28
2019-01-05T01:09:17.263Z,96483.45
2019-01-05T01:12:11.145Z,96472.89
2019-01-05T01:15:00.903Z,96480.88
2019-01-05T01:17:51.582Z,96482.50
2019-01-05T01:20:41.582Z,96486.96
2019-01-05T01:23:49.734Z,96486.27
2019-01-05T01:26:59.062Z,96467.15
2019-01-05T01:30:06.479Z,96450.09
2019-01-05T01:33:03.736Z,96452.94
2019-01-05T01:35:50.114Z,96447.81
2019-01-05T01:39:13.766Z,96450.59
2019-01-05T01:42:07.796Z,96456.69
2019-01-05T01:45:05.956Z,96463.73
2019-01-05T01:47:59.958Z,96449.13
2019-01-05T01:51:09.867Z,96447.61
2019-01-05T01:54:12.494Z,96437.25
2019-01-05T01:57:08.644Z,96442.66
2019-01-05T02:00:34.415Z,96441.07
2019-01-05T02:03:43.933Z,96444.14
2019-01-05T02:06:46.399Z,96438.48
2019-01-05T02:09:59.075Z,96440.02
2019-01-05T02:12:49.611Z,96437.70
2019-01-05T02:16:00.913Z,96435.84
2019-01-05T02:19:39.335Z,96435.56
2019-01-05T02:23:47.335Z,96436.56
2019-01-05T02:27:37.555Z,96437.95
2019-01-05T02:31:39.175Z,96444.44
2019-01-05T02:35:10.057Z,96426.58
2019-01-05T02:39:20.575Z,96433.23
2019-01-05T02:43:15.513Z,96428.67
2019-01-05T02:46:58.774Z,96417.64
2019-01-05T02:50:31.315Z,96406.91
2019-01-05T02:54:19.836Z,96395.91
2019-01-05T02:58:47.575Z,96384.55
2019-01-05T03:02:28.344Z,96375.01
2019-01-05T03:06:20.755Z,96370.70
2019-01-05T03:10:38.455Z,96371.94
2019-01-05T03:14:34.548Z,96359.23
2019-01-05T03:19:10.595Z,96356.35
2019-01-05T03:23:18.855Z,96352.77
2019-01-05T03:27:30.444Z,96347.73
2019-01-05T03:32:02.138Z,96333.81
2019-01-05T03:35:33.074Z,96344.98
2019-01-05T03:39:16.923Z,96330.48
2019-01-05T03:43:29.408Z,96322.83
2019-01-05T03:47:31.357Z,96310.82
2019-01-05T03:51:12.835Z,96311.06
2019-01-05T03:54:56.246Z,96302.69
2019-01-05T03:58:47.655Z,96299.32
2019-01-05T04:02:43.327Z,96293.25
2019-01-05T04:06:48.487Z,96297.56
2019-01-05T04:10:08.076Z,96288.59
2019-01-05T04:14:28.824Z,96287.44
2019-01-05T04:18:22.676Z,96280.27
2019-01-05T04:22:43.739Z,96273.48
2019-01-05T04:26:19.637Z,96267.58
2019-01-05T04:30:30.695Z,96261.50
2019-01-05T04:34:05.654Z,96255.45
2019-01-05T04:37:42.430Z,96230.59
2019-01-05T04:41:36.021Z,96246.30
2019-01-05T04:45:47.873Z,96246.66
2019-01-05T04:49:49.522Z,96246.02
2019-01-05T04:54:13.708Z,96242.06
2019-01-05T04:58:05.538Z,96252.83
2019-01-05T05:02:11.982Z,96240.58
2019-01-05T05:06:05.344Z,96231.08
2019-01-05T05:09:55.035Z,96218.40
2019-01-05T05:13:31.716Z,96223.80
2019-01-05T05:17:57.676Z,96215.14
2019-01-05T05:22:12.379Z,96197.44
2019-01-05T05:26:26.337Z,96184.61
2019-01-05T05:30:24.562Z,96181.63
2019-01-05T05:34:20.478Z,96170.81
2019-01-05T05:38:37.095Z,96179.11
2019-01-05T05:42:38.799Z,96157.86
2019-01-05T05:46:14.216Z,96153.19
2019-01-05T05:50:23.735Z,96153.19
2019-01-05T05:53:56.154Z,96156.16
2019-01-05T05:57:57.622Z,96162.26
2019-01-05T06:02:30.455Z,96169.91
2019-01-05T06:06:15.062Z,96170.44
2019-01-05T06:10:26.546Z,96164.30
2019-01-05T06:14:26.298Z,96165.38
2019-01-05T06:18:14.675Z,96168.35
2019-01-05T06:22:11.390Z,96165.95
2019-01-05T06:26:20.583Z,96167.02
2019-01-05T06:30:44.600Z,96166.40
2019-01-05T06:34:48.224Z,96181.84
2019-01-05T06:39:02.435Z,96178.89
2019-01-05T06:42:56.911Z,96179.56
2019-01-05T06:47:10.695Z,96186.61
2019-01-05T06:51:33.179Z,96186.98
2019-01-05T06:55:45.698Z,96198.28
2019-01-05T06:59:58.108Z,96204.90
2019-01-05T07:04:01.403Z,96212.42
2019-01-05T07:08:26.914Z,96210.80
2019-01-05T07:12:36.623Z,96211.59
2019-01-05T07:16:41.115Z,96207.63
2019-01-05T07:20:29.866Z,96214.84
2019-01-05T07:24:37.458Z,96216.12
2019-01-05T07:28:27.994Z,96222.06
2019-01-05T07:32:08.352Z,96217.80
2019-01-05T07:36:00.954Z,96220.16
2019-01-05T07:39:52.202Z,96209.09
2019-01-05T07:43:53.683Z,96207.67
2019-01-05T07:48:00.032Z,96211.23
2019-01-05T07:51:44.443Z,96205.86
2019-01-05T07:55:31.239Z,96212.33
2019-01-05T07:59:23.915Z,96211.49
2019-01-05T08:03:13.103Z,96210.70
2019-01-05T08:07:12.922Z,96209.42
2019-01-05T08:11:15.797Z,96212.19
2019-01-05T08:15:37.154Z,96208.33
2019-01-05T08:19:32.781Z,96205.33
2019-01-05T08:23:33.022Z,96203.63
2019-01-05T08:27:49.507Z,96192.86
2019-01-05T08:32:04.755Z,96200.27
2019-01-05T08:36:01.751Z,96200.36
2019-01-05T08:39:57.315Z,96195.59
2019-01-05T08:44:10.271Z,96195.44
2019-01-05T08:47:43.140Z,96194.97
2019-01-05T08:52:09.244Z,96190.80
2019-01-05T08:56:33.692Z,96197.95
2019-01-05T09:00:24.748Z,96183.59
2019-01-05T09:04:09.734Z,96186.34
2019-01-05T09:08:32.530Z,96190.17
2019-01-05T09:12:12.800Z,96189.41
2019-01-05T09:16:38.900Z,96189.41
2019-01-05T09:20:52.081Z,96186.02
2019-01-05T09:24:49.630Z,96188.13
2019-01-05T09:29:08.371Z,96184.42
2019-01-05T09:32:56.220Z,96179.48
2019-01-05T09:36:46.371Z,96167.64
2019-01-05T09:40:46.901Z,96166.09
2019-01-05T09:44:38.069Z,96157.82
2019-01-05T09:48:42.486Z,96149.91
2019-01-05T09:52:50.993Z,96137.44
2019-01-05T09:56:28.260Z,96140.55
2019-01-05T10:00:34.175Z,96130.67
2019-01-05T10:04:36.211Z,96128.22
2019-01-05T10:08:42.746Z,96123.76
2019-01-05T10:12:44.768Z,96129.44
2019-01-05T10:17:06.011Z,96123.82
2019-01-05T10:20:44.351Z,96115.42
2019-01-05T10:24:51.131Z,96105.73
2019-01-05T10:29:14.800Z,96097.14
2019-01-05T10:33:18.811Z,96096.55
2019-01-05T10:37:35.719Z,96079.07
2019-01-05T10:41:41.891Z,96070.22
2019-01-05T10:45:25.480Z,96057.34
2019-01-05T10:49:35.285Z,96054.31
2019-01-05T10:53:16.914Z,96048.47
2019-01-05T10:57:20.364Z,96047.19
2019-01-05T11:01:03.465Z,96047.43
2019-01-05T11:04:57.435Z,96037.81
2019-01-05T11:08:45.066Z,96031.81
2019-01-05T11:12:43.411Z,96024.50
2019-01-05T11:16:38.211Z,96010.93
2019-01-05T11:20:23.136Z,95999.50
2019-01-05T11:24:18.033Z,95993.63
2019-01-05T11:28:14.232Z,95989.85
2019-01-05T11:31:55.912Z,95993.47
2019-01-05T11:36:01.224Z,95991.76
2019-01-05T11:40:21.239Z,95975.77
2019-01-05T11:44:04.856Z,95969.33
2019-01-05T11:47:46.684Z,95961.41
2019-01-05T11:51:39.133Z,95957.35
2019-01-05T11:55:31.488Z,95951.38
2019-01-05T11:59:15.299Z,95944.98
2019-01-05T12:03:20.125Z,95939.66
2019-01-05T12:07:04.899Z,95933.86
2019-01-05T12:11:28.871Z,95928.65
2019-01-05T12:15:01.580Z,95934.73
2019-01-05T12:18:49.495Z,95926.68
2019-01-05T12:22:32.923Z,95923.93
2019-01-05T12:26:20.730Z,95922.98
2019-01-05T12:30:08.210Z,95918.72
2019-01-05T12:34:05.791Z,95924.54
2019-01-05T12:38:22.814Z,95923.11
2019-01-05T12:42:14.551Z,95907.48
2019-01-05T12:46:35.173Z,95913.89
2019-01-05T12:50:24.680Z,95911.08
2019-01-05T12:54:18.773Z,95895.26
2019-01-05T12:58:15.691Z,95892.39
2019-01-05T13:02:16.631Z,95891.88
2019-01-05T13:06:18.052Z,95887.70
2019-01-05T13:10:28.851Z,95881.22
2019-01-05T13:14:47.770Z,95891.88
2019-01-05T13:18:46.371Z,95892.96
2019-01-05T13:22:50.880Z,95891.84
2019-01-05T13:27:01.572Z,95890.81
2019-01-05T13:30:53.271Z,95894.98
2019-01-05T13:34:40.633Z,95891.77
2019-01-05T13:39:05.781Z,95879.28
2019-01-05T13:43:24.372Z,95889.93
2019-01-05T13:47:19.291Z,95897.67
2019-01-05T13:51:20.933Z,95901.49
2019-01-05T13:54:32.092Z,95897.09
2019-01-05T13:57:33.053Z,95894.75
2019-01-05T14:00:31.991Z,95886.70
2019-01-05T14:03:38.265Z,95884.69
2019-01-05T14:06:31.633Z,95880.06
2019-01-05T14:09:21.370Z,95888.67
2019-01-05T14:12:24.571Z,95884.41
2019-01-05T14:15:15.532Z,95887.52
2019-01-05T14:18:21.633Z,95889.48
2019-01-05T14:21:21.850Z,95887.11
2019-01-05T14:24:28.733Z,95895.92
2019-01-05T14:27:25.372Z,95889.44
2019-01-05T14:30:29.642Z,95892.30
2019-01-05T14:33:20.531Z,95898.22
2019-01-05T14:36:47.211Z,95902.88
2019-01-05T14:39:36.677Z,95906.13
2019-01-05T14:42:30.631Z,95901.74
2019-01-05T14:45:35.080Z,95902.50
2019-01-05T14:48:29.217Z,95902.31
2019-01-05T14:51:26.227Z,95909.09
2019-01-05T14:54:15.801Z,95902.03
2019-01-05T14:57:14.612Z,95901.80
2019-01-05T15:00:36.121Z,95896.58
2019-01-05T15:03:43.291Z,95903.50
2019-01-05T15:06:51.257Z,95923.05
2019-01-05T15:10:01.914Z,95910.80
2019-01-05T15:13:17.696Z,95909.31
2019-01-05T15:16:25.371Z,95896.66
2019-01-05T15:19:42.679Z,95905.50
2019-01-05T15:22:55.971Z,95900.87
2019-01-05T15:26:17.243Z,95901.23
2019-01-05T15:29:28.619Z,95911.34
2019-01-05T15:32:40.511Z,95920.63
2019-01-05T15:35:52.352Z,95917.78
2019-01-05T15:39:19.991Z,95914.38
2019-01-05T15:42:38.193Z,95915.59
2019-01-05T15:45:45.764Z,95912.02
2019-01-05T15:49:03.775Z,95920.43
2019-01-05T15:52:13.071Z,95915.64
2019-01-05T15:55:40.116Z,95915.70
2019-01-05T15:58:51.725Z,95923.33
2019-01-05T16:02:03.693Z,95928.17
2019-01-05T16:05:30.793Z,95923.14
2019-01-05T16:08:46.193Z,95929.69
2019-01-05T16:11:53.457Z,95927.14
2019-01-05T16:15:08.720Z,95939.47
2019-01-05T16:18:27.291Z,95933.95
2019-01-05T16:21:42.372Z,95940.96
2019-01-05T16:24:51.413Z,95955.86
2019-01-05T16:28:03.556Z,95953.31
2019-01-05T16:31:11.411Z,95963.30
2019-01-05T16:34:18.971Z,95972.73
2019-01-05T16:37:37.132Z,95973.09
2019-01-05T16:41:10.781Z,95974.11
2019-01-05T16:44:20.031Z,95977.25
2019-01-05T16:47:40.008Z,95985.37
2019-01-05T16:50:49.153Z,95990.21
2019-01-05T16:53:55.417Z,95998.28
2019-01-05T16:57:09.159Z,95997.84
2019-01-05T17:00:24.053Z,95994.38
2019-01-05T17:03:51.961Z,95999.14
2019-01-05T17:07:00.123Z,95998.14
2019-01-05T17:10:07.868Z,96003.71
2019-01-05T17:13:17.770Z,96001.72
2019-01-05T17:16:30.073Z,96002.77
2019-01-05T17:19:43.315Z,95995.55
2019-01-05T17:22:51.813Z,96008.13
2019-01-05T17:26:02.205Z,96013.08
2019-01-05T17:29:15.699Z,96013.88
2019-01-05T17:32:25.857Z,96015.31
2019-01-05T17:35:40.913Z,96018.64
2019-01-05T17:38:53.551Z,96027.91
2019-01-05T17:42:01.591Z,96022.51
2019-01-05T17:45:23.281Z,96032.00
2019-01-05T17:48:31.133Z,96024.16
2019-01-05T17:51:38.464Z,96034.22
2019-01-05T17:55:08.668Z,96038.38
2019-01-05T17:58:36.450Z,96048.06
2019-01-05T18:01:44.558Z,96042.84
2019-01-05T18:05:00.190Z,96040.43
2019-01-05T18:08:25.108Z,96041.15
2019-01-05T18:11:33.434Z,96042.31
2019-01-05T18:14:41.640Z,96051.80
2019-01-05T18:18:00.526Z,96044.87
2019-01-05T18:21:10.045Z,96045.90
2019-01-05T18:24:12.753Z,96048.84
2019-01-05T18:27:20.287Z,96050.55
2019-01-05T18:30:28.457Z,96053.71
2019-01-05T18:33:37.650Z,96055.95
2019-01-05T18:36:50.103Z,96061.52
2019-01-05T18:39:58.680Z,96059.09
2019-01-05T18:43:17.181Z,96066.28
2019-01-05T18:46:26.601Z,96067.52
2019-01-05T18:49:35.933Z,96078.91
2019-01-05T18:52:43.956Z,96079.44
2019-01-05T18:55:52.031Z,96066.94
2019-01-05T18:59:16.532Z,96071.03
2019-01-05T19:02:21.953Z,96068.15
2019-01-05T19:05:37.148Z,96070.80
2019-01-05T19:09:04.632Z,96070.36
2019-01-05T19:12:20.091Z,96067.13
2019-01-05T19:15:29.754Z,96062.92
2019-01-05T19:18:37.911Z,96062.54
2019-01-05T19:21:46.111Z,96061.30
2019-01-05T19:25:04.691Z,96058.22
2019-01-05T19:28:19.853Z,96057.89
2019-01-05T19:31:38.017Z,96059.16
2019-01-05T19:34:45.871Z,96055.13
2019-01-05T19:38:10.851Z,96070.98
2019-01-05T19:41:29.437Z,96075.41
2019-01-05T19:44:49.332Z,96077.92
2019-01-05T19:47:57.615Z,96078.05
2019-01-05T19:51:26.651Z,96076.42
2019-01-05T19:54:31.805Z,96073.02
2019-01-05T19:57:59.814Z,96078.95
2019-01-05T20:01:09.221Z,96087.56
2019-01-05T20:04:25.131Z,96084.28
2019-01-05T20:07:34.420Z,96089.56
2019-01-05T20:10:42.501Z,96083.52
2019-01-05T20:13:49.092Z,96084.14
2019-01-05T20:16:57.209Z,96080.70
2019-01-05T20:20:09.573Z,96073.12
2019-01-05T20:23:19.234Z,96070.81
2019-01-05T20:26:28.345Z,96076.71
2019-01-05T20:29:33.713Z,96069.84
2019-01-05T20:32:42.445Z,96069.61
2019-01-05T20:35:50.471Z,96057.36
2019-01-05T20:38:58.831Z,96062.38
2019-01-05T20:42:08.291Z,96060.37
2019-01-05T20:45:16.856Z,96063.54
2019-01-05T20:48:24.145Z,96068.06
2019-01-05T20:51:50.470Z,96066.18
2019-01-05T20:55:05.933Z,96070.19
2019-01-05T20:58:24.052Z,96065.46
2019-01-05T21:01:33.408Z,96065.73
2019-01-05T21:04:58.292Z,96065.37
2019-01-05T21:08:10.451Z,96075.22
2019-01-05T21:11:32.371Z,96063.62
2019-01-05T21:14:40.291Z,96067.88
2019-01-05T21:17:46.831Z,96071.70
2019-01-05T21:21:05.633Z,96072.45
2019-01-05T21:24:27.540Z,96077.78
2019-01-05T21:27:42.312Z,96067.63
2019-01-05T21:30:57.851Z,96073.03
2019-01-05T21:34:05.851Z,96070.60
2019-01-05T21:37:15.200Z,96065.86
2019-01-05T21:40:23.711Z,96070.20
2019-01-05T21:43:33.531Z,96069.88
2019-01-05T21:46:41.585Z,96068.13
2019-01-05T21:49:53.919Z,96059.61
2019-01-05T21:53:06.411Z,96064.73
2019-01-05T21:56:15.853Z,96053.48
2019-01-05T21:59:24.020Z,96060.94
2019-01-05T22:02:36.574Z,96068.45
2019-01-05T22:05:51.731Z,96074.20
2019-01-05T22:09:07.472Z,96059.39
2019-01-05T22:12:12.446Z,96066.48
2019-01-05T22:15:19.731Z,96065.73
2019-01-05T22:18:35.191Z,96069.16
2019-01-05T22:21:43.071Z,96074.89
2019-01-05T22:25:01.273Z,96069.50
2019-01-05T22:28:18.911Z,96072.56
2019-01-05T22:31:46.192Z,96076.91
2019-01-05T22:34:53.651Z,96077.38
2019-01-05T22:37:57.202Z,96071.14
2019-01-05T22:41:09.000Z,96062.51
2019-01-05T22:44:16.251Z,96073.14
2019-01-05T22:47:27.975Z,96068.33
2019-01-05T22:50:34.981Z,96063.52
2019-01-05T22:53:43.736Z,96065.33
2019-01-05T22:56:51.071Z,96064.27
2019-01-05T22:59:58.332Z,96062.13
2019-01-05T23:03:04.372Z,96068.55
2019-01-05T23:06:13.601Z,96069.73
2019-01-05T23:09:24.872Z,96064.61
2019-01-05T23:12:42.772Z,96058.86
2019-01-05T23:15:50.171Z,96059.48
2019-01-05T23:18:57.891Z,96059.37
2019-01-05T23:22:12.272Z,96062.28
2019-01-05T23:25:50.913Z,96056.02
2019-01-05T23:29:14.778Z,96049.85
2019-01-05T23:32:29.911Z,96056.55
2019-01-05T23:35:38.570Z,96053.98
2019-01-05T23:39:11.787Z,96064.11
2019-01-05T23:42:23.033Z,96060.66
2019-01-05T23:45:35.771Z,96065.05
2019-01-05T23:48:49.736Z,96060.59
2019-01-05T23:51:58.693Z,96060.52
2019-01-05T23:55:07.633Z,96064.34
2019-01-05T23:58:46.054Z,96059.27
